Time;durP1;ratioP1;P1;durP2;ratioP2;P2;SDS_P1;SDS_P2;PMS_P1;PMS_P2;Temp;Humidity;BMP_temperature;BMP_pressure;BME280_temperature;BME280_humidity;BME280_pressure;Samples;Min_cycle;Max_cycle;Signal;HPM_P1;HPM_P2
2022/06/21 00:01:09;;;;;;;3.20;2.83;;;;;;;13.43;70.10;98553.63;4125363;28;20282;-62
2022/06/21 00:03:16;;;;;;;3.03;2.60;;;;;;;13.40;70.13;98548.69;4138019;28;20231;-63
2022/06/21 00:05:41;;;;;;;3.22;2.85;;;;;;;13.38;69.95;98548.09;4125605;28;20273;-63
2022/06/21 00:07:51;;;;;;;2.72;2.58;;;;;;;13.36;69.94;98544.81;4121214;28;20293;-63
2022/06/21 00:09:54;;;;;;;2.67;2.47;;;;;;;13.36;70.19;98549.50;4139966;28;20711;-62
2022/06/21 00:11:58;;;;;;;3.30;3.00;;;;;;;13.31;70.41;98543.97;4130877;28;20202;-62
2022/06/21 00:14:05;;;;;;;3.25;3.05;;;;;;;13.24;70.32;98533.19;4124574;28;20554;-64
2022/06/21 00:16:16;;;;;;;4.43;2.70;;;;;;;13.16;70.61;98539.19;4126795;28;20266;-62
2022/06/21 00:18:22;;;;;;;3.40;3.05;;;;;;;13.12;70.75;98543.59;4125617;28;20203;-63
2022/06/21 00:20:29;;;;;;;3.03;2.83;;;;;;;13.07;70.80;98548.22;4109463;28;20242;-62
2022/06/21 00:22:32;;;;;;;3.53;3.22;;;;;;;12.99;70.81;98549.53;4126912;28;20422;-62
2022/06/21 00:24:36;;;;;;;3.60;3.10;;;;;;;13.01;70.93;98550.09;4128112;28;20285;-63
2022/06/21 00:26:46;;;;;;;3.30;3.00;;;;;;;12.91;71.19;98552.72;4140425;28;20206;-63
2022/06/21 00:28:52;;;;;;;3.55;3.22;;;;;;;12.92;70.80;98561.81;4141092;28;20217;-62
2022/06/21 00:30:58;;;;;;;2.80;2.40;;;;;;;12.94;70.98;98554.13;4125992;28;20680;-63
2022/06/21 00:33:01;;;;;;;3.67;3.22;;;;;;;12.92;71.19;98550.81;4123964;28;20669;-61
2022/06/21 00:35:14;;;;;;;5.63;2.97;;;;;;;12.90;71.17;98558.50;4124794;28;20715;-63
2022/06/21 00:37:23;;;;;;;3.38;3.17;;;;;;;12.86;71.29;98558.22;4127902;28;20287;-62
2022/06/21 00:39:26;;;;;;;3.90;3.60;;;;;;;12.84;71.84;98554.88;4127002;28;20688;-62
2022/06/21 00:41:43;;;;;;;3.38;3.08;;;;;;;12.82;71.67;98546.09;4140959;28;20293;-63
2022/06/21 00:43:51;;;;;;;4.38;3.40;;;;;;;12.80;71.44;98545.53;4119775;28;20237;-61
2022/06/21 00:45:57;;;;;;;3.40;3.13;;;;;;;12.76;71.62;98547.13;4140799;28;20248;-62
2022/06/21 00:48:31;;;;;;;3.88;2.97;;;;;;;12.71;71.96;98552.56;4127975;28;20716;-62
2022/06/21 00:50:41;;;;;;;3.22;3.03;;;;;;;12.71;71.62;98551.78;4110425;28;20257;-62
2022/06/21 00:53:00;;;;;;;3.20;2.90;;;;;;;12.70;71.42;98564.66;4123197;28;20214;-62
2022/06/21 00:55:13;;;;;;;5.78;3.30;;;;;;;12.72;71.22;98551.53;4124421;28;21087;-63
2022/06/21 00:57:20;;;;;;;3.53;2.97;;;;;;;12.74;71.11;98563.06;4141822;28;20263;-62
2022/06/21 00:59:33;;;;;;;2.95;2.75;;;;;;;12.76;71.28;98557.31;4125787;28;20213;-62
2022/06/21 01:01:39;;;;;;;3.38;3.15;;;;;;;12.73;71.02;98553.16;4137150;28;20267;-61
2022/06/21 01:03:52;;;;;;;3.25;3.03;;;;;;;12.70;71.22;98550.13;4136660;28;20284;-61
2022/06/21 01:06:08;;;;;;;4.05;3.72;;;;;;;12.68;71.21;98544.88;4140123;28;20208;-62
2022/06/21 01:08:20;;;;;;;2.45;2.25;;;;;;;12.63;70.91;98547.59;4146026;28;20197;-63
2022/06/21 01:10:24;;;;;;;3.35;2.92;;;;;;;12.63;71.57;98546.78;4131119;28;20212;-62
2022/06/21 01:12:33;;;;;;;3.58;2.60;;;;;;;12.60;71.18;98542.63;4114033;28;20210;-62
2022/06/21 01:14:42;;;;;;;3.63;3.33;;;;;;;12.53;71.53;98542.03;4145226;28;20260;-62
2022/06/21 01:16:44;;;;;;;3.60;3.28;;;;;;;12.51;71.84;98540.63;4129718;28;20236;-61
2022/06/21 01:18:47;;;;;;;4.90;2.97;;;;;;;12.50;71.97;98541.72;4146774;28;20237;-62
2022/06/21 01:20:59;;;;;;;3.00;2.75;;;;;;;12.51;71.61;98549.66;4130579;28;20233;-61
2022/06/21 01:23:16;;;;;;;4.07;2.80;;;;;;;12.49;71.43;98540.88;4142662;28;20209;-62
2022/06/21 01:25:37;;;;;;;3.22;2.88;;;;;;;12.53;71.27;98547.50;4124454;28;20229;-62
2022/06/21 01:27:39;;;;;;;7.82;3.35;;;;;;;12.55;71.24;98545.31;4137111;28;20202;-63
2022/06/21 01:29:41;;;;;;;4.03;3.72;;;;;;;12.49;71.28;98534.53;4128248;28;20213;-62
2022/06/21 01:31:43;;;;;;;3.42;3.13;;;;;;;12.45;71.68;98523.25;4126219;28;20210;-62
2022/06/21 01:33:45;;;;;;;3.10;2.75;;;;;;;12.46;71.52;98529.59;4127901;28;20711;-62
2022/06/21 01:35:50;;;;;;;3.42;3.13;;;;;;;12.44;71.64;98526.28;4142401;28;20288;-62
2022/06/21 01:37:52;;;;;;;2.95;2.70;;;;;;;12.42;71.50;98518.31;4130099;28;20201;-62
2022/06/21 01:40:08;;;;;;;4.15;2.88;;;;;;;12.42;71.46;98507.34;4129455;28;20801;-62
2022/06/21 01:42:24;;;;;;;3.10;2.80;;;;;;;12.41;71.48;98516.66;4138670;28;20798;-62
2022/06/21 01:44:49;;;;;;;5.40;2.78;;;;;;;12.41;71.45;98533.13;4128609;28;20716;-62
2022/06/21 01:46:51;;;;;;;3.88;2.88;;;;;;;12.44;71.06;98535.34;4124843;28;20214;-62
2022/06/21 01:49:00;;;;;;;2.90;2.67;;;;;;;12.44;71.18;98526.28;4123194;28;20705;-62
2022/06/21 01:51:06;;;;;;;3.28;3.08;;;;;;;12.42;70.75;98518.31;4138357;28;20253;-62
2022/06/21 01:53:09;;;;;;;3.13;2.85;;;;;;;12.39;70.89;98529.81;4124962;28;20679;-62
2022/06/21 01:55:35;;;;;;;3.42;3.13;;;;;;;12.32;71.12;98529.22;4125237;28;20231;-63
2022/06/21 01:57:38;;;;;;;2.83;2.63;;;;;;;12.28;71.22;98528.06;4132919;28;20263;-62
2022/06/21 01:59:44;;;;;;;4.32;3.20;;;;;;;12.19;71.20;98526.91;4120980;28;21648;-62
2022/06/21 02:02:03;;;;;;;3.50;3.25;;;;;;;12.14;71.73;98543.31;4125419;28;20260;-62
2022/06/21 02:04:07;;;;;;;7.57;3.45;;;;;;;12.10;71.77;98531.19;4127477;28;20253;-62
2022/06/21 02:06:12;;;;;;;3.72;3.42;;;;;;;12.07;72.18;98526.22;4123560;28;20217;-63
2022/06/21 02:08:15;;;;;;;4.10;3.70;;;;;;;12.03;72.34;98507.81;4125155;28;20210;-62
2022/06/21 02:10:25;;;;;;;3.53;3.17;;;;;;;12.00;71.96;98503.66;4143258;28;20205;-62
2022/06/21 02:12:27;;;;;;;3.22;3.03;;;;;;;12.02;72.22;98511.63;4142097;28;20654;-61
2022/06/21 02:14:29;;;;;;;3.63;3.33;;;;;;;12.03;72.01;98505.88;4110841;28;20227;-62
2022/06/21 02:16:32;;;;;;;3.53;3.33;;;;;;;12.01;72.32;98499.84;4127944;28;20301;-61
2022/06/21 02:18:39;;;;;;;3.92;3.60;;;;;;;12.00;72.29;98506.41;4122300;28;20213;-62
2022/06/21 02:20:53;;;;;;;4.03;3.72;;;;;;;11.96;72.29;98508.00;4123391;28;20276;-62
2022/06/21 02:22:55;;;;;;;4.10;3.80;;;;;;;11.90;72.38;98503.56;4106288;28;20214;-62
2022/06/21 02:24:57;;;;;;;4.22;3.90;;;;;;;11.93;72.54;98503.06;4111470;28;20238;-62
2022/06/21 02:27:00;;;;;;;4.10;3.70;;;;;;;11.81;72.98;98504.28;4139462;28;20264;-62
2022/06/21 02:29:02;;;;;;;4.47;4.07;;;;;;;11.78;73.09;98511.09;4118428;28;20206;-62
2022/06/21 02:31:04;;;;;;;3.95;3.75;;;;;;;11.77;73.22;98509.44;4125760;28;20249;-62
2022/06/21 02:33:10;;;;;;;5.97;3.92;;;;;;;11.77;72.90;98514.13;4140878;28;20286;-62
2022/06/21 02:35:36;;;;;;;5.05;4.65;;;;;;;11.69;72.93;98507.16;4127504;28;20268;-62
2022/06/21 02:37:38;;;;;;;3.97;3.75;;;;;;;11.71;72.99;98501.44;4118675;28;20217;-62
2022/06/21 02:39:40;;;;;;;4.68;4.28;;;;;;;11.72;72.96;98495.69;4122448;28;20233;-62
2022/06/21 02:41:43;;;;;;;4.63;4.22;;;;;;;11.72;73.17;98494.88;4125587;28;20229;-62
2022/06/21 02:43:57;;;;;;;3.67;3.38;;;;;;;11.70;73.17;98491.56;4100474;28;20215;-62
2022/06/21 02:46:08;;;;;;;4.20;4.00;;;;;;;11.73;73.16;98497.34;4120176;28;20232;-62
2022/06/21 02:48:16;;;;;;;4.55;4.25;;;;;;;11.69;73.44;98493.47;4127303;28;20206;-62
2022/06/21 02:50:29;;;;;;;5.10;4.25;;;;;;;11.62;73.39;98500.22;4118757;28;20206;-62
2022/06/21 02:52:37;;;;;;;7.70;4.00;;;;;;;11.66;73.34;98496.72;4138389;28;20213;-61
2022/06/21 02:54:58;;;;;;;13.27;5.10;;;;;;;11.62;73.27;98490.09;4122317;28;20221;-63
2022/06/21 02:57:06;;;;;;;5.43;4.35;;;;;;;11.61;73.00;98488.44;4124275;28;20677;-61
2022/06/21 02:59:09;;;;;;;4.25;3.95;;;;;;;11.62;73.24;98476.41;4140151;28;20212;-62
2022/06/21 03:01:20;;;;;;;6.43;4.70;;;;;;;11.61;72.92;98482.97;4124547;28;20237;-62
2022/06/21 03:03:25;;;;;;;4.60;4.18;;;;;;;11.60;72.88;98478.56;4148045;28;20310;-63
2022/06/21 03:05:28;;;;;;;4.88;4.57;;;;;;;11.56;73.20;98469.16;4125381;28;20230;-61
2022/06/21 03:07:38;;;;;;;6.50;4.75;;;;;;;11.56;73.14;98469.16;4122661;28;20335;-61
2022/06/21 03:09:40;;;;;;;4.75;4.35;;;;;;;11.55;73.14;98473.00;4130272;28;20202;-61
2022/06/21 03:11:44;;;;;;;4.85;4.35;;;;;;;11.53;73.46;98463.38;4126770;28;20206;-61
2022/06/21 03:13:46;;;;;;;4.20;3.85;;;;;;;11.57;73.34;98454.38;4126296;28;20630;-61
2022/06/21 03:15:54;;;;;;;3.92;3.63;;;;;;;11.65;72.98;98447.66;4127999;28;20712;-61
2022/06/21 03:18:09;;;;;;;4.78;4.47;;;;;;;11.68;72.62;98445.22;4138404;28;20798;-61
2022/06/21 03:20:15;;;;;;;5.18;3.15;;;;;;;11.53;72.92;98445.03;4123585;28;22695;-61
2022/06/21 03:22:30;;;;;;;5.20;4.70;;;;;;;11.52;73.08;98454.31;4108299;28;20685;-61
2022/06/21 03:24:32;;;;;;;7.15;3.90;;;;;;;11.47;72.91;98447.97;4142001;28;20229;-61
2022/06/21 03:26:34;;;;;;;6.38;4.40;;;;;;;11.42;72.91;98454.22;4124942;28;20213;-61
2022/06/21 03:28:39;;;;;;;4.75;4.38;;;;;;;11.43;72.89;98441.34;4118590;28;20211;-61
2022/06/21 03:30:41;;;;;;;4.05;3.75;;;;;;;11.40;73.13;98437.22;4137607;28;21175;-61
2022/06/21 03:32:43;;;;;;;4.53;4.22;;;;;;;11.38;73.10;98439.38;4125651;28;20565;-61
2022/06/21 03:34:47;;;;;;;4.88;4.30;;;;;;;11.37;73.21;98436.91;4109289;28;20223;-61
2022/06/21 03:36:49;;;;;;;5.05;4.70;;;;;;;11.35;73.24;98428.94;4135545;28;20627;-61
2022/06/21 03:38:54;;;;;;;4.78;4.38;;;;;;;11.34;73.38;98437.41;4138268;28;20205;-61
2022/06/21 03:43:22;;;;;;;4.50;4.20;;;;;;;11.42;73.16;98442.41;4128629;28;20212;-61
2022/06/21 03:45:30;;;;;;;4.68;4.38;;;;;;;11.43;73.18;98446.84;4124597;28;20234;-61
2022/06/21 03:47:44;;;;;;;4.25;3.92;;;;;;;11.44;73.22;98449.28;4123181;28;20205;-61
2022/06/21 03:50:03;;;;;;;5.70;4.10;;;;;;;11.45;72.86;98445.47;4134133;28;20662;-60
2022/06/21 03:52:10;;;;;;;4.63;4.22;;;;;;;11.43;73.45;98444.91;4139444;28;20205;-61
2022/06/21 03:54:31;;;;;;;4.63;4.22;;;;;;;11.41;73.47;98427.91;4137576;28;20229;-61
2022/06/21 03:56:39;;;;;;;4.80;4.45;;;;;;;11.45;73.37;98434.50;4106343;28;20218;-61
2022/06/21 03:59:01;;;;;;;4.97;4.43;;;;;;;11.44;73.34;98430.13;4122433;28;20637;-61
2022/06/21 04:01:15;;;;;;;5.03;4.57;;;;;;;11.42;73.31;98429.56;4136414;28;20233;-62
2022/06/21 04:03:23;;;;;;;5.65;4.00;;;;;;;11.47;73.40;98432.34;4106539;28;20207;-62
2022/06/21 04:05:39;;;;;;;4.15;3.75;;;;;;;11.37;73.85;98426.75;4135376;28;20221;-61
2022/06/21 04:07:48;;;;;;;4.18;3.90;;;;;;;11.41;73.74;98422.44;4120744;28;20202;-62
2022/06/21 04:09:53;;;;;;;4.72;4.32;;;;;;;11.43;73.80;98425.72;4123892;28;20236;-62
2022/06/21 04:12:07;;;;;;;4.55;3.58;;;;;;;11.42;73.57;98413.13;4113771;28;20229;-62
2022/06/21 04:14:23;;;;;;;4.43;4.13;;;;;;;11.53;73.36;98412.16;4124049;28;20617;-61
2022/06/21 04:16:35;;;;;;;3.88;3.58;;;;;;;11.58;72.86;98417.69;4121677;28;20269;-61
2022/06/21 04:18:45;;;;;;;4.60;4.20;;;;;;;11.54;72.88;98410.22;4135918;28;20735;-61
2022/06/21 04:21:17;;;;;;;4.90;4.53;;;;;;;11.50;72.98;98409.91;4135840;28;20205;-61
2022/06/21 04:23:43;;;;;;;3.97;3.72;;;;;;;11.50;73.26;98415.38;4125072;28;20738;-61
2022/06/21 04:26:07;;;;;;;4.35;4.05;;;;;;;11.52;73.37;98407.72;4137995;28;20221;-61
2022/06/21 04:28:12;;;;;;;4.50;4.18;;;;;;;11.54;73.18;98415.69;4131842;28;20221;-61
2022/06/21 04:30:23;;;;;;;4.82;4.43;;;;;;;11.58;73.09;98405.91;4137635;28;20210;-62
2022/06/21 04:32:41;;;;;;;4.60;4.30;;;;;;;11.51;73.73;98411.56;4120230;28;20895;-61
2022/06/21 04:34:53;;;;;;;4.78;4.38;;;;;;;11.56;73.50;98416.28;4122732;28;20221;-62
2022/06/21 04:37:03;;;;;;;4.57;4.28;;;;;;;11.63;73.59;98414.19;4121632;28;20261;-61
2022/06/21 04:39:13;;;;;;;4.75;4.45;;;;;;;11.69;73.53;98413.97;4124168;28;20245;-63
2022/06/21 04:41:48;;;;;;;7.60;5.32;;;;;;;11.79;73.47;98410.50;4108925;28;20206;-61
2022/06/21 04:43:58;;;;;;;5.72;5.20;;;;;;;11.84;73.58;98416.84;4123147;28;20223;-62
2022/06/21 04:46:07;;;;;;;5.55;4.75;;;;;;;11.96;73.70;98416.69;4137878;28;20209;-61
2022/06/21 04:48:25;;;;;;;4.88;4.47;;;;;;;11.97;73.76;98421.91;4118522;28;20260;-61
2022/06/21 04:50:50;;;;;;;4.35;4.05;;;;;;;12.05;73.96;98423.34;4116890;28;20203;-61
2022/06/21 04:53:00;;;;;;;4.97;4.50;;;;;;;12.11;73.76;98423.13;4123396;28;20202;-61
2022/06/21 04:55:03;;;;;;;5.80;5.40;;;;;;;12.15;73.52;98412.44;4138179;28;20229;-61
2022/06/21 04:57:08;;;;;;;5.05;4.63;;;;;;;12.23;73.43;98421.03;4120846;28;20221;-61
2022/06/21 04:59:20;;;;;;;4.95;4.55;;;;;;;12.26;73.66;98420.50;4137243;28;20209;-61
2022/06/21 05:01:32;;;;;;;5.43;4.97;;;;;;;12.38;73.55;98417.56;4137766;28;20263;-61
2022/06/21 05:03:38;;;;;;;5.57;5.07;;;;;;;12.42;73.60;98422.25;4120629;28;20218;-61
2022/06/21 05:05:40;;;;;;;5.05;4.72;;;;;;;12.40;73.84;98416.22;4124345;28;20758;-61
2022/06/21 05:07:49;;;;;;;5.80;5.00;;;;;;;12.56;74.21;98417.16;4140272;28;20291;-62
2022/06/21 05:09:53;;;;;;;4.97;4.57;;;;;;;12.65;74.17;98413.63;4140434;28;20213;-61
2022/06/21 05:12:05;;;;;;;4.55;4.25;;;;;;;12.76;73.92;98404.34;4127011;28;20695;-62
2022/06/21 05:14:17;;;;;;;4.80;4.43;;;;;;;12.84;74.09;98405.78;4138155;28;20268;-59
2022/06/21 05:16:23;;;;;;;5.85;5.35;;;;;;;12.86;73.91;98400.81;4123859;28;20648;-61
2022/06/21 05:18:30;;;;;;;6.55;4.70;;;;;;;13.01;73.58;98396.28;4127523;28;20210;-62
2022/06/21 05:20:34;;;;;;;4.97;4.55;;;;;;;13.07;74.30;98403.44;4134296;28;20205;-61
2022/06/21 05:22:40;;;;;;;5.45;5.10;;;;;;;13.18;73.74;98398.81;4118475;28;20684;-62
2022/06/21 05:24:46;;;;;;;5.47;3.95;;;;;;;13.33;73.13;98394.19;4121425;28;20233;-62
2022/06/21 05:27:07;;;;;;;4.20;3.90;;;;;;;13.43;73.54;98396.94;4121569;28;20217;-62
2022/06/21 05:29:36;;;;;;;4.10;3.80;;;;;;;13.51;72.90;98401.91;4137223;28;20318;-62
2022/06/21 05:31:41;;;;;;;4.88;4.45;;;;;;;13.62;73.15;98413.75;4140176;28;20814;-62
2022/06/21 05:33:46;;;;;;;3.42;3.15;;;;;;;13.71;72.50;98412.13;4124117;28;20221;-62
2022/06/21 05:35:47;;;;;;;4.93;4.10;;;;;;;13.74;72.73;98406.91;4137298;28;20275;-62
2022/06/21 05:38:04;;;;;;;9.85;4.45;;;;;;;13.83;73.12;98408.03;4119069;28;20237;-61
2022/06/21 05:40:37;;;;;;;4.72;4.35;;;;;;;13.90;72.40;98405.81;4137527;28;20263;-61
2022/06/21 05:42:39;;;;;;;3.83;3.47;;;;;;;14.01;72.39;98418.50;4106323;28;20219;-61
2022/06/21 05:44:53;;;;;;;4.30;4.03;;;;;;;14.20;72.31;98411.38;4108307;28;20750;-62
2022/06/21 05:46:59;;;;;;;4.25;3.95;;;;;;;14.35;72.25;98414.13;4128916;28;20667;-61
2022/06/21 05:49:08;;;;;;;3.80;3.25;;;;;;;14.37;71.79;98411.91;4124185;28;20261;-61
2022/06/21 05:51:16;;;;;;;4.55;3.45;;;;;;;14.52;71.52;98409.16;4117030;28;20272;-61
2022/06/21 05:53:34;;;;;;;3.75;3.45;;;;;;;14.53;70.80;98413.56;4136504;28;20209;-61
2022/06/21 05:55:44;;;;;;;6.07;3.70;;;;;;;14.63;70.84;98432.81;4122604;28;20234;-61
2022/06/21 05:57:45;;;;;;;4.07;3.65;;;;;;;14.61;71.01;98435.03;4141721;28;20216;-62
2022/06/21 05:59:47;;;;;;;9.80;4.47;;;;;;;14.75;70.74;98436.09;4142060;28;20206;-62
2022/06/21 06:02:02;;;;;;;5.07;4.40;;;;;;;14.75;70.41;98441.59;4139558;28;20284;-62
2022/06/21 06:04:09;;;;;;;5.05;4.15;;;;;;;14.87;70.42;98439.38;4123981;28;20692;-63
2022/06/21 06:06:17;;;;;;;5.22;4.72;;;;;;;15.08;69.86;98435.44;4112422;28;20237;-62
2022/06/21 06:08:23;;;;;;;4.45;4.13;;;;;;;15.25;69.50;98435.94;4126138;28;20201;-62
2022/06/21 06:10:25;;;;;;;6.32;4.45;;;;;;;15.49;68.71;98436.16;4138478;28;20220;-61
2022/06/21 06:12:36;;;;;;;6.07;4.75;;;;;;;15.61;67.79;98434.69;4121461;28;20206;-61
2022/06/21 06:14:45;;;;;;;6.47;4.40;;;;;;;15.73;68.50;98429.66;4139383;28;20224;-62
2022/06/21 06:16:50;;;;;;;4.93;4.43;;;;;;;15.82;66.93;98444.50;4135897;28;20205;-61
2022/06/21 06:19:10;;;;;;;5.53;4.47;;;;;;;16.05;66.60;98449.34;4140417;28;20240;-62
2022/06/21 06:21:22;;;;;;;5.88;4.85;;;;;;;16.09;65.53;98464.19;4121873;28;20206;-62
2022/06/21 06:23:29;;;;;;;6.60;5.20;;;;;;;16.06;65.45;98477.75;4126838;28;20691;-62
2022/06/21 06:25:48;;;;;;;7.68;4.90;;;;;;;16.12;65.69;98485.72;4124053;28;20719;-62
2022/06/21 06:28:02;;;;;;;5.97;4.65;;;;;;;16.14;66.24;98494.53;4138512;28;20205;-62
2022/06/21 06:30:06;;;;;;;4.43;4.03;;;;;;;16.18;66.31;98506.66;4135659;28;20213;-62
2022/06/21 06:32:18;;;;;;;13.80;3.47;;;;;;;16.30;66.85;98504.34;4127727;28;20217;-62
2022/06/21 06:34:23;;;;;;;4.10;3.70;;;;;;;16.49;65.65;98513.63;4136772;28;20229;-62
2022/06/21 06:36:47;;;;;;;3.55;3.25;;;;;;;16.82;65.75;98518.34;4125917;28;20638;-62
2022/06/21 06:38:49;;;;;;;3.88;3.20;;;;;;;16.97;65.39;98515.44;4121338;28;20210;-62
2022/06/21 06:41:00;;;;;;;4.50;3.13;;;;;;;17.29;64.59;98518.41;4122258;28;20668;-62
2022/06/21 06:43:12;;;;;;;3.90;2.92;;;;;;;17.31;64.05;98505.94;4119741;28;20230;-62
2022/06/21 06:45:20;;;;;;;4.97;4.00;;;;;;;17.16;63.13;98513.56;4135117;28;20236;-62
2022/06/21 06:47:28;;;;;;;3.40;2.33;;;;;;;17.11;63.53;98516.41;4125692;28;20214;-62
2022/06/21 06:49:50;;;;;;;3.80;2.90;;;;;;;17.06;63.92;98505.41;4121821;28;21162;-62
2022/06/21 06:52:17;;;;;;;4.07;3.70;;;;;;;17.22;63.77;98506.88;4139078;28;20210;-62
2022/06/21 06:55:03;;;;;;;3.78;2.92;;;;;;;17.59;62.98;98491.25;4124566;28;20234;-62
2022/06/21 06:57:17;;;;;;;2.97;2.63;;;;;;;17.66;62.10;98457.69;4074784;29;20216;-62
2022/06/21 06:59:20;;;;;;;5.18;2.83;;;;;;;18.09;60.70;98462.06;4069601;29;20216;-64
2022/06/21 07:01:39;;;;;;;4.50;2.40;;;;;;;18.12;61.08;98439.31;4060255;28;20248;-63
2022/06/21 07:03:47;;;;;;;4.65;2.95;;;;;;;17.98;61.89;98416.25;4135602;28;20280;-62
2022/06/21 07:05:55;;;;;;;7.93;2.40;;;;;;;17.57;61.73;98387.50;4125335;28;20643;-62
2022/06/21 07:08:02;;;;;;;4.47;2.25;;;;;;;17.23;61.50;98353.63;4121580;28;20930;-63
2022/06/21 07:10:08;;;;;;;3.97;2.38;;;;;;;16.89;62.17;98324.50;4124299;28;21518;-62
2022/06/21 07:12:14;;;;;;;5.20;2.22;;;;;;;16.72;62.13;98279.94;4122242;28;20237;-62
2022/06/21 07:14:23;;;;;;;5.85;2.88;;;;;;;16.45;62.33;98230.81;4124801;28;20250;-62
2022/06/21 07:16:25;;;;;;;4.75;2.58;;;;;;;16.54;62.79;98240.09;4128584;28;20711;-61
2022/06/21 07:18:34;;;;;;;3.03;2.08;;;;;;;16.57;63.13;98314.09;4125013;28;20291;-60
2022/06/21 07:20:41;;;;;;;3.83;2.55;;;;;;;16.55;63.26;98338.44;4138759;28;20464;-61
2022/06/21 07:22:43;;;;;;;4.22;2.33;;;;;;;16.42;62.94;98325.31;4139518;28;20754;-61
2022/06/21 07:25:12;;;;;;;2.65;2.45;;;;;;;16.59;63.33;98320.16;4122290;28;20260;-61
2022/06/21 07:27:15;;;;;;;5.53;2.45;;;;;;;16.56;63.37;98304.16;4109233;28;20198;-62
2022/06/21 07:29:30;;;;;;;8.85;2.42;;;;;;;16.73;62.87;98301.75;4121933;28;20202;-62
2022/06/21 07:31:37;;;;;;;2.53;2.17;;;;;;;17.31;61.91;98294.91;4138695;28;20240;-62
2022/06/21 07:33:45;;;;;;;3.20;2.28;;;;;;;17.79;61.03;98268.72;4122347;28;20213;-62
2022/06/21 07:35:56;;;;;;;3.05;2.00;;;;;;;17.91;59.67;98280.94;4137723;28;20241;-62
2022/06/21 07:38:17;;;;;;;5.15;1.92;;;;;;;18.26;58.92;98285.06;4123083;28;20684;-61
2022/06/21 07:40:34;;;;;;;5.03;2.42;;;;;;;18.06;58.87;98271.56;4124844;28;20206;-60
2022/06/21 07:42:43;;;;;;;2.72;2.10;;;;;;;18.29;58.61;98278.88;4141617;28;20213;-61
2022/06/21 07:44:46;;;;;;;2.33;1.83;;;;;;;18.41;57.42;98293.09;4124690;28;20292;-61
2022/06/21 07:46:55;;;;;;;3.50;1.80;;;;;;;18.39;57.01;98296.16;4109398;28;20207;-62
2022/06/21 07:49:16;;;;;;;3.42;1.77;;;;;;;18.08;57.65;98295.06;4122388;28;20292;-61
2022/06/21 07:51:26;;;;;;;3.92;2.78;;;;;;;18.43;57.60;98296.38;4139732;28;20202;-61
2022/06/21 07:53:32;;;;;;;3.25;1.90;;;;;;;18.66;56.75;98295.41;4137930;28;20267;-62
2022/06/21 07:55:38;;;;;;;10.85;2.08;;;;;;;18.77;57.07;98296.84;4137119;28;20221;-61
2022/06/21 07:57:45;;;;;;;3.13;2.08;;;;;;;19.18;57.80;98311.50;4106688;28;20285;-61
2022/06/21 07:59:50;;;;;;;2.40;2.05;;;;;;;19.27;55.62;98323.53;4104399;28;20219;-62
2022/06/21 08:07:23;;;;;;;1.88;1.13;;;;;;;19.30;53.70;98336.78;4137643;28;20241;-63
2022/06/21 08:09:37;;;;;;;3.08;1.48;;;;;;;19.45;52.28;98336.47;4123141;28;22310;-62
2022/06/21 08:11:44;;;;;;;2.88;1.30;;;;;;;19.42;52.43;98331.53;4133265;28;20212;-63
2022/06/21 08:13:46;;;;;;;3.97;1.70;;;;;;;19.36;51.69;98327.22;4133499;28;20806;-61
2022/06/21 08:15:57;;;;;;;9.20;1.38;;;;;;;19.47;52.14;98321.16;4130767;28;20237;-61
2022/06/21 08:18:03;;;;;;;8.88;1.50;;;;;;;19.43;51.45;98325.66;4123827;28;20634;-61
2022/06/21 08:20:07;;;;;;;1.80;1.13;;;;;;;19.55;51.51;98336.22;4122727;28;20218;-61
2022/06/21 08:22:20;;;;;;;3.45;1.30;;;;;;;19.96;50.83;98325.78;4137719;28;20579;-62
2022/06/21 08:24:36;;;;;;;2.63;1.38;;;;;;;20.05;49.67;98330.31;4122530;28;20704;-61
2022/06/21 08:26:42;;;;;;;2.28;1.80;;;;;;;19.98;49.89;98329.91;4120315;28;20260;-61
2022/06/21 08:28:51;;;;;;;1.75;1.25;;;;;;;20.30;50.58;98338.03;4118454;28;20199;-62
2022/06/21 08:30:56;;;;;;;4.65;2.38;;;;;;;20.52;48.21;98337.97;4134895;28;20241;-61
2022/06/21 08:33:05;;;;;;;3.78;1.38;;;;;;;20.46;48.64;98341.22;4119856;28;20233;-62
2022/06/21 08:35:35;;;;;;;3.88;1.10;;;;;;;20.55;46.60;98344.88;4132866;28;20236;-61
2022/06/21 08:37:51;;;;;;;1.80;1.10;;;;;;;20.72;48.20;98331.88;4128664;28;20733;-61
2022/06/21 08:40:08;;;;;;;2.33;1.20;;;;;;;21.20;46.63;98331.94;4132985;28;20276;-61
2022/06/21 08:42:40;;;;;;;3.58;1.20;;;;;;;21.20;47.83;98329.16;4122357;28;20205;-61
2022/06/21 08:45:42;;;;;;;1.83;1.05;;;;;;;20.77;47.13;98328.16;4120768;28;20229;-61
2022/06/21 08:47:44;;;;;;;1.55;0.98;;;;;;;20.42;47.11;98331.88;4122556;28;20208;-61
2022/06/21 08:50:06;;;;;;;2.28;1.40;;;;;;;20.61;46.89;98338.03;4123712;28;20886;-61
2022/06/21 08:52:28;;;;;;;2.92;1.27;;;;;;;20.52;46.91;98339.97;4137477;28;20217;-61
2022/06/21 08:54:37;;;;;;;2.22;1.70;;;;;;;20.58;46.45;98330.34;4122666;28;20623;-61
2022/06/21 08:56:50;;;;;;;6.30;1.55;;;;;;;20.93;46.52;98334.94;4121296;28;20206;-61
2022/06/21 08:59:15;;;;;;;6.20;1.50;;;;;;;20.71;47.23;98332.22;4137173;28;20701;-60
2022/06/21 09:01:37;;;;;;;9.60;1.45;;;;;;;20.47;47.22;98342.88;4109103;28;20205;-61
2022/06/21 09:03:58;;;;;;;7.05;2.03;;;;;;;20.25;47.26;98340.91;4136324;28;20221;-61
2022/06/21 09:06:02;;;;;;;2.17;1.13;;;;;;;20.29;47.39;98341.09;4121357;28;20205;-61
2022/06/21 09:08:17;;;;;;;2.83;1.35;;;;;;;20.39;47.17;98335.31;4121500;28;20956;-61
2022/06/21 09:10:49;;;;;;;2.63;1.35;;;;;;;20.49;48.86;98335.00;4132659;28;20213;-61
2022/06/21 09:13:20;;;;;;;2.58;1.65;;;;;;;20.33;48.69;98337.41;4134945;28;20215;-62
2022/06/21 09:15:32;;;;;;;4.13;1.60;;;;;;;20.43;49.02;98330.72;4138008;28;20229;-60
2022/06/21 09:17:39;;;;;;;5.35;1.75;;;;;;;20.49;48.40;98335.00;4120523;28;20209;-60
2022/06/21 09:20:03;;;;;;;4.00;1.20;;;;;;;20.60;47.29;98341.97;4117050;28;20647;-61
2022/06/21 09:22:32;;;;;;;7.43;1.15;;;;;;;20.66;47.79;98335.13;4126456;28;20583;-61
2022/06/21 09:24:42;;;;;;;3.85;1.88;;;;;;;20.63;47.26;98342.16;4125831;28;20253;-61
2022/06/21 09:27:05;;;;;;;6.07;1.17;;;;;;;20.67;48.90;98342.31;4140225;28;20576;-60
2022/06/21 09:29:29;;;;;;;11.30;1.65;;;;;;;20.89;48.06;98332.00;4135869;28;20656;-61
2022/06/21 09:31:58;;;;;;;4.35;1.33;;;;;;;21.36;47.28;98333.13;4107255;28;20641;-61
2022/06/21 09:34:06;;;;;;;2.58;1.30;;;;;;;21.74;45.98;98331.41;4137965;28;20256;-61
2022/06/21 09:36:17;;;;;;;1.15;1.05;;;;;;;21.88;46.22;98323.72;4138104;28;20239;-60
2022/06/21 09:38:37;;;;;;;2.58;1.20;;;;;;;22.05;46.39;98318.16;4116253;28;20660;-61
2022/06/21 09:41:04;;;;;;;1.73;1.38;;;;;;;22.13;45.51;98325.69;4133794;28;20209;-61
2022/06/21 09:43:31;;;;;;;4.28;1.30;;;;;;;22.28;46.03;98328.78;4137026;28;20217;-61
2022/06/21 09:45:49;;;;;;;2.40;1.08;;;;;;;22.38;45.48;98328.41;4138494;28;20224;-61
2022/06/21 09:47:51;;;;;;;2.65;1.38;;;;;;;22.55;44.69;98327.59;4109412;28;20210;-60
2022/06/21 09:50:09;;;;;;;2.13;1.17;;;;;;;22.80;44.73;98324.75;4122304;28;20209;-61
2022/06/21 09:52:23;;;;;;;2.83;1.27;;;;;;;23.08;45.37;98325.09;4123995;28;20680;-61
2022/06/21 09:54:38;;;;;;;2.20;1.20;;;;;;;23.29;44.22;98328.81;4142233;28;20303;-60
2022/06/21 09:56:49;;;;;;;4.43;1.45;;;;;;;23.12;44.50;98331.66;4123087;28;20285;-61
2022/06/21 09:59:12;;;;;;;3.75;1.38;;;;;;;23.20;44.20;98330.84;4138457;28;20299;-60
2022/06/21 10:01:23;;;;;;;3.20;1.13;;;;;;;23.59;44.93;98327.66;4109319;28;20198;-60
2022/06/21 10:03:36;;;;;;;2.55;0.98;;;;;;;23.38;44.89;98324.81;4138075;28;20250;-61
2022/06/21 10:05:56;;;;;;;2.60;1.35;;;;;;;23.52;43.07;98317.03;4121708;28;20229;-61
2022/06/21 10:08:20;;;;;;;2.42;1.20;;;;;;;22.98;44.16;98309.53;4136055;28;20205;-60
2022/06/21 10:10:46;;;;;;;2.22;1.58;;;;;;;22.96;44.20;98311.06;4122604;28;20217;-61
2022/06/21 10:12:48;;;;;;;2.50;0.95;;;;;;;22.63;44.24;98304.47;4136493;28;20659;-61
2022/06/21 10:15:28;;;;;;;2.53;1.13;;;;;;;22.92;44.48;98301.72;4121179;28;20225;-61
2022/06/21 10:17:52;;;;;;;3.70;1.30;;;;;;;23.29;44.51;98298.91;4140112;28;20205;-61
2022/06/21 10:20:32;;;;;;;10.88;1.10;;;;;;;23.90;44.91;98297.38;4125275;28;20202;-61
2022/06/21 10:22:43;;;;;;;11.38;1.65;;;;;;;23.93;43.51;98289.13;4124508;28;20224;-61
2022/06/21 10:25:02;;;;;;;6.07;1.00;;;;;;;24.24;43.40;98286.66;4124217;28;20719;-61
2022/06/21 10:27:07;;;;;;;1.90;1.50;;;;;;;23.84;42.81;98283.56;4128700;28;20202;-61